createdAt,value
2023-04-17T00:00:19.066Z,13.37
2023-04-17T00:05:23.286Z,13.70
2023-04-17T00:10:27.735Z,13.97
2023-04-17T00:15:30.851Z,14.63
2023-04-17T00:20:33.751Z,13.10
2023-04-17T00:25:38.073Z,12.50
2023-04-17T00:30:40.999Z,15.73
2023-04-17T00:35:43.875Z,15.70
2023-04-17T00:40:48.831Z,15.13
2023-04-17T00:45:52.158Z,12.50
2023-04-17T00:50:55.363Z,15.93
2023-04-17T00:56:01.760Z,17.03
2023-04-17T01:01:05.470Z,14.50
2023-04-17T01:06:08.589Z,14.80
2023-04-17T01:11:13.187Z,15.30
2023-04-17T01:16:16.345Z,14.17
2023-04-17T01:21:19.497Z,12.00
2023-04-17T01:26:24.926Z,13.40
2023-04-17T01:31:28.968Z,14.63
2023-04-17T01:36:32.022Z,14.27
2023-04-17T01:41:36.438Z,11.60
2023-04-17T01:46:39.355Z,12.43
2023-04-17T01:51:42.336Z,11.07
2023-04-17T01:56:47.486Z,12.10
2023-04-17T02:01:51.240Z,12.00
2023-04-17T02:06:54.217Z,12.90
2023-04-17T02:11:58.474Z,11.70
2023-04-17T02:17:01.584Z,11.93
2023-04-17T02:22:08.832Z,10.10
2023-04-17T02:27:13.046Z,8.57
2023-04-17T02:32:19.701Z,8.40
2023-04-17T02:37:22.726Z,9.33
2023-04-17T02:42:27.268Z,8.50
2023-04-17T02:47:30.248Z,9.70
2023-04-17T02:52:34.810Z,7.83
2023-04-17T02:57:39.084Z,8.73
2023-04-17T03:02:42.329Z,9.27
2023-04-17T03:07:45.527Z,8.07
2023-04-17T03:12:50.536Z,8.60
2023-04-17T03:17:53.975Z,9.13
2023-04-17T03:22:56.999Z,9.10
2023-04-17T03:28:01.250Z,9.80
2023-04-17T03:33:08.142Z,6.00
2023-04-17T03:38:11.233Z,4.60
2023-04-17T03:43:15.591Z,6.17
2023-04-17T03:48:18.705Z,4.73
2023-04-17T03:53:22.981Z,5.10
2023-04-17T03:58:28.323Z,6.40
2023-04-17T04:03:31.823Z,5.37
2023-04-17T04:08:35.982Z,4.80
2023-04-17T04:13:40.449Z,5.80
2023-04-17T04:18:44.159Z,5.13
2023-04-17T04:23:49.782Z,5.10
2023-04-17T04:28:57.380Z,6.57
2023-04-17T04:34:09.059Z,6.67
2023-04-17T04:39:12.390Z,4.97
2023-04-17T04:44:17.810Z,4.50
2023-04-17T04:49:21.769Z,5.30
2023-04-17T04:54:24.899Z,3.80
2023-04-17T04:59:33.752Z,3.50
2023-04-17T05:04:57.554Z,4.00
2023-04-17T05:10:01.167Z,3.70
2023-04-17T05:15:11.830Z,3.80
2023-04-17T05:20:15.490Z,3.43
2023-04-17T05:25:37.010Z,3.50
2023-04-17T05:30:45.481Z,2.60
2023-04-17T05:36:02.418Z,1.83
2023-04-17T05:41:09.267Z,2.37
2023-04-17T05:46:14.863Z,2.50
2023-04-17T05:51:19.421Z,2.80
2023-04-17T05:56:23.418Z,3.90
2023-04-17T06:01:29.933Z,4.10
2023-04-17T06:06:32.900Z,4.37
2023-04-17T06:11:36.043Z,6.93
2023-04-17T06:16:41.045Z,7.27
2023-04-17T06:21:45.325Z,7.57
2023-04-17T06:26:48.248Z,8.73
2023-04-17T06:31:53.249Z,7.63
2023-04-17T06:36:57.546Z,6.50
2023-04-17T06:42:02.434Z,7.00
2023-04-17T06:47:06.982Z,6.40
2023-04-17T06:52:14.082Z,9.60
2023-04-17T06:57:17.250Z,8.80
2023-04-17T07:02:21.925Z,7.17
2023-04-17T07:07:27.076Z,6.30
2023-04-17T07:12:30.097Z,7.27
2023-04-17T07:17:34.445Z,7.93
2023-04-17T07:22:37.421Z,6.50
2023-04-17T07:27:40.331Z,7.73
2023-04-17T07:32:45.906Z,6.80
2023-04-17T07:37:48.990Z,7.30
2023-04-17T07:42:52.821Z,8.30
2023-04-17T07:47:57.086Z,7.27
2023-04-17T07:53:00.051Z,7.10
2023-04-17T07:58:03.848Z,7.00
2023-04-17T08:03:08.401Z,7.00
2023-04-17T08:08:11.488Z,8.73
2023-04-17T08:13:14.471Z,6.27
2023-04-17T08:18:18.746Z,6.30
2023-04-17T08:23:21.599Z,5.00
2023-04-17T08:28:24.607Z,5.40
2023-04-17T08:33:28.964Z,6.93
2023-04-17T08:38:32.065Z,5.83
2023-04-17T08:43:36.907Z,6.27
2023-04-17T08:48:41.379Z,7.67
2023-04-17T08:53:44.413Z,6.30
2023-04-17T08:58:47.343Z,5.40
2023-04-17T09:03:52.604Z,5.10
2023-04-17T09:08:57.846Z,7.10
2023-04-17T09:14:01.296Z,8.23
2023-04-17T09:19:08.722Z,10.00
2023-04-17T09:24:11.642Z,7.93
2023-04-17T09:29:15.581Z,8.60
2023-04-17T09:34:20.870Z,8.63
2023-04-17T09:39:24.687Z,8.60
2023-04-17T09:44:30.153Z,13.57
2023-04-17T09:49:42.179Z,9.27
2023-04-17T09:54:47.587Z,9.30
2023-04-17T09:59:50.860Z,9.13
2023-04-17T10:04:55.585Z,9.70
2023-04-17T10:09:58.434Z,18.37
2023-04-17T10:15:01.558Z,11.47
2023-04-17T10:20:44.673Z,12.90
2023-04-17T10:25:47.642Z,12.20
2023-04-17T10:30:52.403Z,9.67
2023-04-17T10:35:56.709Z,11.23
2023-04-17T10:41:03.791Z,12.93
2023-04-17T10:46:09.803Z,11.30
2023-04-17T10:51:44.253Z,8.27
2023-04-17T10:56:48.508Z,16.50
2023-04-17T11:02:01.169Z,9.20
2023-04-17T11:07:05.888Z,9.10
2023-04-17T11:12:08.934Z,10.33
2023-04-17T11:17:11.932Z,12.73
2023-04-17T11:22:19.366Z,13.03
2023-04-17T11:27:23.601Z,15.27
2023-04-17T11:32:26.521Z,10.83
2023-04-17T11:37:30.834Z,10.03
2023-04-17T11:42:33.718Z,11.33
2023-04-17T11:47:36.781Z,10.70
2023-04-17T11:52:41.093Z,9.03
2023-04-17T11:57:44.362Z,13.33
2023-04-17T12:02:47.354Z,11.90
2023-04-17T12:08:02.191Z,10.83
2023-04-17T12:13:05.548Z,11.27
2023-04-17T12:18:09.331Z,14.43
2023-04-17T12:23:13.645Z,12.83
2023-04-17T12:28:16.572Z,11.33
2023-04-17T12:33:19.489Z,12.83
2023-04-17T12:38:24.325Z,14.37
2023-04-17T12:43:27.272Z,15.07
2023-04-17T12:48:32.745Z,14.57
2023-04-17T12:53:37.440Z,14.43
2023-04-17T12:58:40.369Z,12.70
2023-04-17T13:03:43.455Z,14.47
2023-04-17T13:08:48.160Z,11.27
2023-04-17T13:13:51.054Z,11.37
2023-04-17T13:18:53.980Z,13.63
2023-04-17T13:23:58.309Z,12.27
2023-04-17T13:29:01.179Z,11.43
2023-04-17T13:34:05.398Z,13.40
2023-04-17T13:39:10.692Z,13.40
2023-04-17T13:49:51.254Z,16.83
2023-04-17T13:54:55.718Z,20.30
2023-04-17T13:59:58.769Z,15.43
2023-04-17T14:05:01.881Z,13.93
2023-04-17T14:10:07.582Z,13.97
2023-04-17T14:15:11.977Z,15.33
2023-04-17T14:20:16.745Z,15.90
2023-04-17T14:25:21.182Z,13.80
2023-04-17T14:30:24.422Z,16.40
2023-04-17T14:35:27.379Z,14.10
2023-04-17T14:40:31.885Z,15.57
2023-04-17T14:45:36.719Z,13.97
2023-04-17T14:50:40.005Z,16.17
2023-04-17T14:55:44.332Z,20.17
2023-04-17T15:00:47.256Z,16.50
2023-04-17T15:05:52.316Z,13.70
2023-04-17T15:10:56.633Z,16.30
2023-04-17T15:15:59.568Z,16.40
2023-04-17T15:21:02.437Z,17.10
2023-04-17T15:26:06.892Z,14.33
2023-04-17T15:31:09.784Z,15.93
2023-04-17T15:36:12.734Z,14.27
2023-04-17T15:41:17.158Z,16.57
2023-04-17T15:46:20.283Z,13.70
2023-04-17T15:51:23.231Z,15.00
2023-04-17T15:56:27.520Z,16.60
2023-04-17T16:01:31.717Z,13.57
2023-04-17T16:06:34.709Z,16.17
2023-04-17T16:11:39.272Z,14.20
2023-04-17T16:16:42.237Z,15.03
2023-04-17T16:21:45.176Z,9.57
2023-04-17T16:26:54.385Z,11.77
2023-04-17T16:31:57.662Z,12.90
2023-04-17T16:37:00.635Z,8.23
2023-04-17T16:42:05.118Z,8.30
2023-04-17T16:47:13.452Z,8.70
2023-04-17T16:52:17.443Z,7.60
2023-04-17T16:57:21.766Z,7.97
2023-04-17T17:02:24.743Z,8.43
2023-04-17T17:07:27.705Z,8.70
2023-04-17T17:12:32.124Z,9.27
2023-04-17T17:17:35.044Z,8.10
2023-04-17T17:22:38.210Z,7.60
2023-04-17T17:27:42.493Z,8.30
2023-04-17T17:32:45.410Z,10.00
2023-04-17T17:37:48.313Z,9.00
2023-04-17T17:42:52.665Z,8.57
2023-04-17T17:47:55.820Z,8.93
2023-04-17T17:52:59.151Z,8.53
2023-04-17T17:58:03.795Z,8.83
2023-04-17T18:03:07.079Z,10.23
2023-04-17T18:08:10.335Z,8.53
2023-04-17T18:13:14.935Z,8.97
2023-04-17T18:18:17.835Z,9.57
2023-04-17T18:23:20.816Z,11.10
2023-04-17T18:28:25.165Z,9.87
2023-04-17T18:33:28.817Z,10.80
2023-04-17T18:38:31.957Z,14.13
2023-04-17T18:43:36.316Z,12.53
2023-04-17T18:48:39.215Z,11.57
2023-04-17T18:53:42.145Z,12.83
2023-04-17T18:58:47.150Z,12.90
2023-04-17T19:03:51.224Z,11.60
2023-04-17T19:08:54.489Z,12.63
2023-04-17T19:13:58.727Z,13.97
2023-04-17T19:19:01.735Z,11.00
2023-04-17T19:24:04.865Z,12.17
2023-04-17T19:29:09.213Z,12.07
2023-04-17T19:34:12.177Z,13.40
2023-04-17T19:39:15.448Z,11.80
2023-04-17T19:44:20.156Z,15.00
2023-04-17T19:49:23.008Z,11.17
2023-04-17T19:54:26.010Z,13.03
2023-04-17T19:59:30.306Z,14.67
2023-04-17T20:04:33.351Z,18.27
2023-04-17T20:09:36.268Z,16.43
2023-04-17T20:14:40.584Z,14.10
2023-04-17T20:19:43.556Z,14.40
2023-04-17T20:24:50.657Z,15.00
2023-04-17T20:29:54.981Z,13.90
2023-04-17T20:34:57.888Z,16.93
2023-04-17T20:40:00.771Z,14.50
2023-04-17T20:45:05.670Z,16.03
2023-04-17T20:50:09.991Z,16.43
2023-04-17T20:55:12.900Z,16.03
2023-04-17T21:00:17.634Z,17.37
2023-04-17T21:05:20.539Z,19.37
2023-04-17T21:10:23.411Z,16.57
2023-04-17T21:15:27.757Z,18.33
2023-04-17T21:20:30.924Z,17.93
2023-04-17T21:25:33.823Z,18.10
2023-04-17T21:30:38.564Z,21.00
2023-04-17T21:35:41.510Z,22.13
2023-04-17T21:40:50.910Z,22.73
2023-04-17T21:45:57.025Z,23.30
2023-04-17T21:51:03.982Z,18.30
2023-04-17T21:56:07.281Z,13.90
2023-04-17T22:01:11.591Z,18.53
2023-04-17T22:06:14.547Z,22.40
2023-04-17T22:11:17.459Z,16.83
2023-04-17T22:16:21.798Z,20.40
2023-04-17T22:21:24.816Z,15.17
2023-04-17T22:26:27.899Z,18.80
2023-04-17T22:31:32.303Z,19.40
2023-04-17T22:36:35.422Z,21.13
2023-04-17T22:41:38.298Z,19.70
2023-04-17T22:46:42.728Z,16.70
2023-04-17T22:51:45.706Z,16.57
2023-04-17T22:56:48.622Z,17.30
2023-04-17T23:01:53.538Z,17.20
2023-04-17T23:06:56.856Z,20.60
2023-04-17T23:11:59.718Z,20.60
2023-04-17T23:17:03.924Z,19.57
2023-04-17T23:22:07.668Z,23.40
2023-04-17T23:27:10.633Z,15.80
2023-04-17T23:32:14.983Z,17.80
2023-04-17T23:37:18.044Z,26.80
2023-04-17T23:42:21.098Z,25.10
2023-04-17T23:47:25.421Z,19.63
2023-04-17T23:52:28.558Z,35.57
2023-04-17T23:57:34.607Z,30.57
